createdAt,value
2022-11-13T00:00:42.234Z,21.38
2022-11-13T00:03:10.057Z,23.08
2022-11-13T00:05:37.793Z,20.25
2022-11-13T00:08:05.801Z,21.35
2022-11-13T00:10:33.519Z,20.17
2022-11-13T00:13:01.388Z,22.40
2022-11-13T00:15:29.137Z,20.63
2022-11-13T00:18:02.076Z,18.52
2022-11-13T00:20:29.759Z,23.10
2022-11-13T00:22:57.577Z,23.15
2022-11-13T00:25:25.318Z,19.05
2022-11-13T00:27:53.002Z,24.23
2022-11-13T00:30:20.698Z,17.60
2022-11-13T00:32:48.339Z,19.88
2022-11-13T00:35:17.464Z,19.10
2022-11-13T00:37:45.180Z,20.15
2022-11-13T00:40:13.125Z,18.08
2022-11-13T00:42:40.787Z,17.73
2022-11-13T00:45:09.485Z,18.23
2022-11-13T00:47:37.145Z,19.17
2022-11-13T00:50:05.432Z,15.82
2022-11-13T00:52:34.466Z,20.10
2022-11-13T00:55:02.158Z,16.42
2022-11-13T00:57:29.844Z,15.48
2022-11-13T00:59:57.567Z,17.90
2022-11-13T01:02:25.209Z,18.10
2022-11-13T01:04:52.942Z,15.35
2022-11-13T01:07:20.710Z,19.52
2022-11-13T01:09:52.852Z,15.43
2022-11-13T01:12:20.510Z,17.17
2022-11-13T01:14:48.306Z,15.00
2022-11-13T01:17:15.943Z,15.57
2022-11-13T01:19:43.765Z,14.27
2022-11-13T01:22:11.423Z,19.95
2022-11-13T01:24:39.124Z,18.05
2022-11-13T01:27:08.259Z,16.35
2022-11-13T01:29:35.954Z,16.20
2022-11-13T01:32:03.691Z,17.55
2022-11-13T01:34:31.335Z,19.23
2022-11-13T01:36:58.985Z,18.77
2022-11-13T01:39:26.814Z,13.40
2022-11-13T01:41:54.703Z,19.17
2022-11-13T01:44:23.772Z,17.40
2022-11-13T01:46:55.276Z,17.15
2022-11-13T01:49:31.501Z,14.88
2022-11-13T01:52:01.183Z,17.45
2022-11-13T01:54:32.871Z,16.20
2022-11-13T01:57:01.257Z,15.75
2022-11-13T01:59:33.240Z,15.70
2022-11-13T02:02:01.784Z,16.23
2022-11-13T02:04:30.500Z,15.05
2022-11-13T02:07:01.255Z,15.60
2022-11-13T02:09:34.578Z,14.68
2022-11-13T02:12:02.866Z,13.25
2022-11-13T02:14:32.335Z,12.93
2022-11-13T02:17:03.524Z,14.27
2022-11-13T02:19:33.936Z,13.68
2022-11-13T02:22:11.795Z,13.98
2022-11-13T02:24:45.371Z,12.68
2022-11-13T02:27:21.185Z,13.27
2022-11-13T02:29:48.898Z,14.73
2022-11-13T02:32:16.634Z,12.93
2022-11-13T02:34:44.266Z,16.63
2022-11-13T02:37:12.110Z,13.15
2022-11-13T02:39:41.538Z,14.65
2022-11-13T02:42:09.254Z,13.40
2022-11-13T02:44:36.905Z,15.98
2022-11-13T02:47:04.584Z,13.23
2022-11-13T02:49:32.328Z,16.42
2022-11-13T02:52:00.003Z,13.35
2022-11-13T02:54:27.713Z,13.45
2022-11-13T02:56:56.793Z,11.98
2022-11-13T02:59:24.439Z,13.05
2022-11-13T03:01:52.113Z,15.15
2022-11-13T03:04:19.817Z,15.30
2022-11-13T03:06:47.726Z,14.50
2022-11-13T03:09:15.562Z,13.63
2022-11-13T03:11:44.068Z,12.65
2022-11-13T03:14:13.354Z,12.68
2022-11-13T03:16:41.028Z,17.67
2022-11-13T03:19:08.806Z,14.35
2022-11-13T03:21:36.529Z,13.57
2022-11-13T03:24:04.373Z,15.27
2022-11-13T03:26:32.225Z,13.48
2022-11-13T03:28:59.950Z,13.77
2022-11-13T03:31:28.977Z,13.55
2022-11-13T03:33:56.678Z,12.77
2022-11-13T03:36:24.335Z,11.38
2022-11-13T03:38:52.094Z,15.10
2022-11-13T03:41:19.766Z,12.23
2022-11-13T03:43:47.422Z,14.15
2022-11-13T03:46:15.143Z,13.82
2022-11-13T03:48:44.171Z,14.75
2022-11-13T03:51:11.838Z,11.82
2022-11-13T03:53:39.499Z,12.93
2022-11-13T03:56:07.631Z,12.68
2022-11-13T03:58:38.565Z,13.30
2022-11-13T04:01:07.927Z,17.05
2022-11-13T04:03:35.659Z,20.50
2022-11-13T04:06:04.887Z,19.63
2022-11-13T04:08:32.578Z,22.08
2022-11-13T04:11:07.239Z,18.58
2022-11-13T04:13:34.923Z,17.70
2022-11-13T04:16:02.584Z,18.45
2022-11-13T04:18:30.578Z,20.77
2022-11-13T04:21:01.000Z,18.63
2022-11-13T04:23:30.294Z,20.10
2022-11-13T04:25:58.711Z,15.52
2022-11-13T04:28:26.654Z,20.20
2022-11-13T04:30:55.588Z,22.52
2022-11-13T04:33:23.855Z,25.70
2022-11-13T04:35:51.581Z,20.75
2022-11-13T04:38:19.287Z,22.52
2022-11-13T04:40:50.428Z,24.00
2022-11-13T04:43:17.241Z,20.00
2022-11-13T04:45:44.899Z,21.70
2022-11-13T04:48:12.668Z,21.67
2022-11-13T04:50:40.354Z,18.65
2022-11-13T04:53:07.994Z,22.13
2022-11-13T04:55:35.611Z,22.63
2022-11-13T04:58:04.676Z,21.20
2022-11-13T05:00:32.362Z,28.15
2022-11-13T05:03:00.007Z,26.98
2022-11-13T05:05:27.669Z,28.52
2022-11-13T05:07:55.316Z,32.05
2022-11-13T05:10:23.007Z,40.97
2022-11-13T05:12:50.657Z,24.40
2022-11-13T05:15:19.660Z,31.20
2022-11-13T05:17:49.794Z,30.33
2022-11-13T05:20:18.118Z,24.33
2022-11-13T05:22:45.730Z,27.33
2022-11-13T05:25:13.389Z,73.68
2022-11-13T05:27:41.246Z,34.72
2022-11-13T05:30:10.164Z,103.90
2022-11-13T05:32:39.209Z,30.50
2022-11-13T05:35:07.186Z,63.08
2022-11-13T05:37:34.825Z,26.88
2022-11-13T05:40:02.472Z,55.30
2022-11-13T05:42:30.088Z,30.35
2022-11-13T05:44:57.760Z,33.40
2022-11-13T05:47:25.452Z,81.85
2022-11-13T05:49:54.547Z,28.75
2022-11-13T05:52:22.208Z,26.38
2022-11-13T05:54:49.843Z,45.40
2022-11-13T05:57:17.671Z,24.58
2022-11-13T05:59:45.400Z,24.20
2022-11-13T06:02:13.178Z,22.02
2022-11-13T06:04:40.861Z,22.63
2022-11-13T06:07:09.915Z,23.40
2022-11-13T06:09:37.618Z,20.88
2022-11-13T06:12:05.822Z,21.80
2022-11-13T06:14:33.484Z,18.95
2022-11-13T06:17:01.166Z,20.38
2022-11-13T06:19:29.078Z,21.08
2022-11-13T06:21:56.733Z,17.77
2022-11-13T06:24:25.807Z,19.55
2022-11-13T06:26:53.722Z,19.55
2022-11-13T06:29:21.552Z,21.33
2022-11-13T06:31:49.211Z,17.40
2022-11-13T06:34:16.925Z,16.60
2022-11-13T06:36:44.621Z,20.20
2022-11-13T06:39:13.406Z,17.40
2022-11-13T06:41:42.565Z,18.83
2022-11-13T06:44:10.494Z,19.55
2022-11-13T06:46:38.197Z,19.20
2022-11-13T06:49:05.886Z,20.17
2022-11-13T06:51:33.938Z,17.58
2022-11-13T06:54:01.681Z,20.17
2022-11-13T06:56:29.425Z,19.88
2022-11-13T06:58:58.570Z,21.17
2022-11-13T07:01:27.688Z,24.50
2022-11-13T07:03:55.772Z,21.02
2022-11-13T07:06:25.054Z,23.65
2022-11-13T07:08:53.025Z,20.83
2022-11-13T07:11:22.881Z,18.58
2022-11-13T07:13:50.902Z,19.23
2022-11-13T07:16:20.718Z,20.20
2022-11-13T07:18:52.230Z,18.83
2022-11-13T07:21:21.481Z,17.65
2022-11-13T07:23:49.721Z,23.38
2022-11-13T07:26:17.976Z,19.45
2022-11-13T07:28:46.365Z,18.67
2022-11-13T07:31:15.471Z,18.35
2022-11-13T07:33:45.286Z,19.27
2022-11-13T07:36:13.004Z,18.05
2022-11-13T07:38:40.737Z,15.55
2022-11-13T07:41:08.692Z,17.00
2022-11-13T07:43:36.743Z,20.42
2022-11-13T07:46:04.834Z,18.15
2022-11-13T07:48:32.935Z,17.67
2022-11-13T07:51:02.962Z,19.15
2022-11-13T07:53:31.040Z,17.40
2022-11-13T07:56:02.194Z,17.58
2022-11-13T07:58:30.464Z,17.08
2022-11-13T08:01:04.270Z,17.95
2022-11-13T08:03:32.787Z,14.55
2022-11-13T08:06:07.549Z,20.33
2022-11-13T08:08:36.197Z,17.98
2022-11-13T08:11:09.320Z,18.30
2022-11-13T08:13:38.089Z,18.67
2022-11-13T08:16:07.022Z,18.85
2022-11-13T08:18:35.697Z,16.98
2022-11-13T08:21:12.018Z,15.77
2022-11-13T08:23:43.049Z,15.70
2022-11-13T08:26:11.568Z,17.52
2022-11-13T08:28:39.257Z,19.02
2022-11-13T08:31:12.107Z,19.35
2022-11-13T08:33:39.906Z,19.00
2022-11-13T08:36:10.501Z,17.45
2022-11-13T08:38:38.893Z,16.67
2022-11-13T08:41:09.676Z,18.67
2022-11-13T08:43:37.556Z,16.55
2022-11-13T08:46:05.578Z,16.95
2022-11-13T08:48:33.307Z,14.75
2022-11-13T08:51:01.000Z,15.85
2022-11-13T08:53:30.181Z,17.95
2022-11-13T08:56:01.371Z,15.73
2022-11-13T08:58:34.406Z,17.80
2022-11-13T09:01:02.426Z,19.17
2022-11-13T09:03:30.271Z,18.55
2022-11-13T09:05:58.098Z,15.70
2022-11-13T09:08:26.198Z,18.35
2022-11-13T09:10:55.556Z,16.58
2022-11-13T09:13:23.349Z,16.70
2022-11-13T09:15:51.102Z,14.57
2022-11-13T09:18:18.761Z,15.75
2022-11-13T09:20:47.233Z,13.48
2022-11-13T09:23:14.894Z,13.10
2022-11-13T09:25:42.695Z,15.77
2022-11-13T09:28:12.103Z,13.18
2022-11-13T09:30:40.884Z,13.25
2022-11-13T09:33:08.792Z,15.77
2022-11-13T09:35:36.604Z,13.70
2022-11-13T09:38:11.291Z,14.40
2022-11-13T09:40:44.405Z,13.20
2022-11-13T09:43:24.487Z,12.27
2022-11-13T09:45:55.521Z,13.60
2022-11-13T09:48:30.197Z,16.87
2022-11-13T09:51:00.636Z,17.67
2022-11-13T09:53:34.077Z,10.17
2022-11-13T09:56:09.284Z,10.67
2022-11-13T09:58:47.738Z,10.63
2022-11-13T10:01:23.734Z,12.03
2022-11-13T10:04:03.374Z,11.07
2022-11-13T10:06:45.028Z,9.93
2022-11-13T10:09:23.288Z,10.30
2022-11-13T10:11:56.170Z,12.30
2022-11-13T10:14:30.512Z,11.80
2022-11-13T10:17:03.855Z,10.60
2022-11-13T10:19:37.605Z,11.00
2022-11-13T10:22:32.190Z,10.80
2022-11-13T10:25:10.625Z,10.97
2022-11-13T10:27:39.144Z,12.00
2022-11-13T10:30:14.759Z,14.57
2022-11-13T10:32:43.269Z,12.50
2022-11-13T10:35:27.222Z,14.30
2022-11-13T10:38:07.527Z,11.30
2022-11-13T10:40:37.266Z,11.20
2022-11-13T10:43:15.675Z,11.00
2022-11-13T10:45:56.219Z,11.93
2022-11-13T10:48:27.003Z,12.37
2022-11-13T10:50:57.619Z,13.60
2022-11-13T10:53:27.590Z,11.10
2022-11-13T10:55:58.623Z,12.40
2022-11-13T10:58:26.983Z,11.90
2022-11-13T11:00:56.262Z,12.77
2022-11-13T11:03:27.008Z,13.77
2022-11-13T11:06:00.517Z,11.40
2022-11-13T11:08:32.527Z,16.97
2022-11-13T11:11:34.437Z,13.40
2022-11-13T11:14:20.948Z,12.60
2022-11-13T11:16:53.009Z,11.50
2022-11-13T11:19:26.102Z,11.93
2022-11-13T11:22:01.314Z,12.67
2022-11-13T11:24:35.910Z,13.60
2022-11-13T11:27:09.541Z,15.57
2022-11-13T11:29:42.362Z,15.83
2022-11-13T11:32:17.879Z,14.37
2022-11-13T11:34:53.707Z,14.40
2022-11-13T11:37:29.084Z,16.60
2022-11-13T11:40:03.082Z,17.25
2022-11-13T11:42:37.961Z,14.48
2022-11-13T11:45:16.764Z,14.27
2022-11-13T11:47:46.043Z,17.30
2022-11-13T11:50:16.160Z,16.80
2022-11-13T11:52:57.719Z,17.65
2022-11-13T11:55:59.967Z,17.98
2022-11-13T11:58:52.559Z,23.27
2022-11-13T12:01:32.955Z,17.20
2022-11-13T12:04:13.675Z,16.70
2022-11-13T12:06:52.573Z,14.93
2022-11-13T12:09:28.433Z,15.98
2022-11-13T12:12:04.011Z,14.57
2022-11-13T12:14:42.613Z,18.95
2022-11-13T12:17:31.693Z,16.30
2022-11-13T12:20:11.172Z,16.55
2022-11-13T12:22:47.205Z,18.52
2022-11-13T12:25:24.174Z,18.75
2022-11-13T12:27:58.720Z,14.50
2022-11-13T12:30:37.877Z,14.75
2022-11-13T12:33:19.237Z,16.67
2022-11-13T12:35:52.880Z,13.57
2022-11-13T12:38:34.867Z,12.85
2022-11-13T12:41:10.666Z,17.65
2022-11-13T12:44:07.759Z,19.13
2022-11-13T12:46:38.292Z,19.48
2022-11-13T12:49:25.360Z,15.10
2022-11-13T12:51:57.433Z,16.90
2022-11-13T12:54:33.037Z,14.20
2022-11-13T12:57:20.953Z,14.60
2022-11-13T12:59:52.746Z,13.60
2022-11-13T13:02:34.335Z,18.15
2022-11-13T13:05:15.083Z,17.13
2022-11-13T13:08:05.831Z,20.52
2022-11-13T13:10:43.157Z,19.52
2022-11-13T13:13:24.276Z,14.20
2022-11-13T13:15:57.076Z,23.95
2022-11-13T13:18:30.983Z,17.67
2022-11-13T13:21:03.041Z,17.13
2022-11-13T13:23:36.015Z,17.73
2022-11-13T13:26:06.058Z,16.65
2022-11-13T13:28:34.719Z,13.65
2022-11-13T13:31:09.527Z,15.98
2022-11-13T13:33:51.193Z,16.48
2022-11-13T13:36:30.853Z,14.93
2022-11-13T13:39:09.392Z,17.02
2022-11-13T13:41:52.431Z,17.45
2022-11-13T13:44:36.236Z,15.55
2022-11-13T13:47:08.303Z,14.73
2022-11-13T13:49:37.624Z,14.53
2022-11-13T13:52:06.154Z,17.85
2022-11-13T13:54:37.195Z,15.35
2022-11-13T13:57:04.937Z,17.73
2022-11-13T13:59:35.320Z,15.05
2022-11-13T14:02:05.051Z,18.58
2022-11-13T14:04:35.961Z,16.50
2022-11-13T14:07:04.459Z,16.63
2022-11-13T14:09:32.470Z,17.98
2022-11-13T14:12:09.226Z,17.20
2022-11-13T14:14:40.510Z,15.07
2022-11-13T14:17:11.167Z,18.08
2022-11-13T14:19:39.570Z,15.23
2022-11-13T14:22:11.521Z,17.27
2022-11-13T14:24:47.271Z,17.67
2022-11-13T14:27:20.461Z,20.23
2022-11-13T14:29:50.481Z,17.88
2022-11-13T14:32:22.276Z,16.58
2022-11-13T14:34:51.725Z,19.25
2022-11-13T14:37:28.971Z,19.05
2022-11-13T14:39:59.553Z,16.13
2022-11-13T14:42:36.666Z,15.40
2022-11-13T14:45:15.461Z,16.33
2022-11-13T14:47:43.597Z,20.77
2022-11-13T14:50:22.770Z,15.50
2022-11-13T14:52:58.735Z,20.30
2022-11-13T14:55:28.565Z,18.97
2022-11-13T14:57:57.735Z,19.60
2022-11-13T15:00:31.524Z,17.70
2022-11-13T15:03:00.362Z,21.20
2022-11-13T15:05:28.683Z,17.57
2022-11-13T15:07:57.433Z,20.30
2022-11-13T15:10:27.326Z,22.38
2022-11-13T15:12:56.927Z,22.90
2022-11-13T15:15:28.815Z,20.25
2022-11-13T15:17:57.115Z,19.65
2022-11-13T15:20:27.400Z,20.52
2022-11-13T15:22:56.672Z,25.55
2022-11-13T15:25:25.738Z,20.70
2022-11-13T15:27:53.719Z,18.42
2022-11-13T15:30:22.843Z,18.02
2022-11-13T15:32:53.993Z,19.02
2022-11-13T15:35:22.604Z,22.25
2022-11-13T15:37:50.435Z,18.90
2022-11-13T15:40:18.777Z,17.60
2022-11-13T15:42:46.888Z,20.23
2022-11-13T15:45:16.678Z,18.50
2022-11-13T15:47:45.863Z,20.15
2022-11-13T15:50:15.203Z,17.00
2022-11-13T15:52:46.499Z,15.68
2022-11-13T15:55:25.762Z,18.67
2022-11-13T15:57:54.177Z,18.08
2022-11-13T16:00:26.180Z,20.35
2022-11-13T16:02:56.771Z,15.75
2022-11-13T16:05:25.952Z,16.70
2022-11-13T16:07:54.818Z,15.02
2022-11-13T16:10:25.092Z,16.70
2022-11-13T16:12:53.669Z,15.88
2022-11-13T16:15:21.652Z,17.95
2022-11-13T16:17:52.142Z,19.45
2022-11-13T16:20:21.304Z,19.13
2022-11-13T16:22:49.144Z,16.95
2022-11-13T16:25:19.113Z,17.23
2022-11-13T16:27:47.271Z,21.75
2022-11-13T16:30:16.817Z,21.42
2022-11-13T16:32:44.539Z,22.13
2022-11-13T16:35:15.709Z,22.23
2022-11-13T16:37:44.841Z,24.58
2022-11-13T16:40:22.774Z,22.65
2022-11-13T16:42:51.634Z,23.52
2022-11-13T16:45:20.533Z,17.35
2022-11-13T16:47:49.790Z,22.30
2022-11-13T16:50:19.697Z,21.05
2022-11-13T16:52:48.799Z,20.25
2022-11-13T16:55:19.624Z,22.08
2022-11-13T16:57:47.348Z,22.60
2022-11-13T17:00:17.410Z,26.20
2022-11-13T17:02:45.443Z,22.13
2022-11-13T17:05:14.692Z,22.45
2022-11-13T17:07:42.772Z,24.05
2022-11-13T17:10:30.965Z,25.08
2022-11-13T17:13:00.206Z,24.88
2022-11-13T17:15:27.996Z,24.52
2022-11-13T17:17:58.524Z,20.10
2022-11-13T17:20:26.573Z,22.48
2022-11-13T17:22:54.231Z,23.50
2022-11-13T17:25:26.556Z,22.95
2022-11-13T17:27:54.425Z,22.95
2022-11-13T17:30:22.110Z,25.77
2022-11-13T17:32:49.842Z,21.52
2022-11-13T17:35:17.861Z,22.40
2022-11-13T17:37:45.705Z,22.10
2022-11-13T17:40:13.513Z,22.80
2022-11-13T17:42:43.114Z,29.17
2022-11-13T17:45:11.557Z,23.55
2022-11-13T17:47:39.450Z,24.85
2022-11-13T17:50:08.143Z,26.23
2022-11-13T17:52:35.898Z,25.63
2022-11-13T17:55:06.264Z,24.58
2022-11-13T17:57:34.331Z,22.10
2022-11-13T18:00:03.646Z,22.42
2022-11-13T18:02:31.427Z,23.48
2022-11-13T18:05:01.251Z,22.02
2022-11-13T18:07:29.739Z,24.65
2022-11-13T18:09:57.711Z,26.23
2022-11-13T18:12:25.458Z,25.83
2022-11-13T18:14:53.351Z,22.60
2022-11-13T18:17:23.500Z,27.30
2022-11-13T18:19:54.765Z,26.17
2022-11-13T18:22:26.344Z,23.73
2022-11-13T18:24:55.490Z,25.20
2022-11-13T18:27:23.236Z,30.23
2022-11-13T18:29:50.965Z,28.55
2022-11-13T18:32:18.732Z,32.38
2022-11-13T18:34:47.785Z,24.85
2022-11-13T18:37:15.466Z,30.75
2022-11-13T18:39:43.287Z,26.67
2022-11-13T18:42:11.019Z,26.83
2022-11-13T18:44:39.152Z,30.38
2022-11-13T18:47:07.221Z,28.95
2022-11-13T18:49:34.922Z,30.95
2022-11-13T18:52:04.048Z,28.58
2022-11-13T18:54:31.815Z,27.40
2022-11-13T18:56:59.883Z,30.17
2022-11-13T18:59:27.688Z,27.30
2022-11-13T19:01:55.483Z,28.15
2022-11-13T19:04:24.141Z,28.88
2022-11-13T19:06:52.392Z,31.77
2022-11-13T19:09:22.718Z,33.92
2022-11-13T19:11:51.316Z,37.17
2022-11-13T19:14:19.725Z,33.53
2022-11-13T19:16:48.161Z,36.60
2022-11-13T19:19:18.768Z,36.25
2022-11-13T19:21:47.781Z,33.90
2022-11-13T19:24:15.864Z,32.78
2022-11-13T19:26:46.250Z,37.58
2022-11-13T19:29:13.993Z,40.67
2022-11-13T19:31:44.672Z,40.15
2022-11-13T19:34:12.439Z,37.25
2022-11-13T19:36:42.562Z,32.33
2022-11-13T19:39:13.372Z,37.60
2022-11-13T19:41:42.370Z,33.08
2022-11-13T19:44:12.410Z,37.30
2022-11-13T19:46:42.482Z,33.22
2022-11-13T19:49:10.270Z,37.60
2022-11-13T19:51:38.644Z,36.40
2022-11-13T19:54:06.387Z,33.05
2022-11-13T19:56:35.229Z,33.70
2022-11-13T19:59:02.965Z,34.13
2022-11-13T20:01:32.961Z,38.13
2022-11-13T20:04:03.293Z,38.30
2022-11-13T20:06:34.260Z,34.30
2022-11-13T20:09:03.457Z,37.90
2022-11-13T20:11:32.789Z,36.22
2022-11-13T20:14:01.130Z,33.45
2022-11-13T20:16:30.123Z,41.72
2022-11-13T20:18:59.697Z,36.47
2022-11-13T20:21:28.736Z,38.63
2022-11-13T20:23:58.022Z,39.50
2022-11-13T20:26:25.839Z,38.38
2022-11-13T20:28:53.531Z,38.85
2022-11-13T20:31:23.291Z,41.20
2022-11-13T20:33:53.054Z,38.85
2022-11-13T20:36:23.917Z,34.42
2022-11-13T20:38:54.783Z,37.42
2022-11-13T20:41:24.005Z,40.90
2022-11-13T20:43:52.564Z,36.30
2022-11-13T20:46:22.037Z,36.17
2022-11-13T20:48:49.827Z,36.50
2022-11-13T20:51:22.770Z,37.80
2022-11-13T20:53:53.143Z,34.15
2022-11-13T20:56:22.800Z,35.00
2022-11-13T20:58:51.592Z,32.17
2022-11-13T21:01:22.219Z,33.30
2022-11-13T21:03:50.666Z,34.08
2022-11-13T21:06:20.086Z,35.10
2022-11-13T21:08:48.490Z,30.70
2022-11-13T21:11:21.953Z,31.33
2022-11-13T21:13:51.235Z,28.40
2022-11-13T21:16:19.147Z,30.77
2022-11-13T21:18:47.477Z,29.33
2022-11-13T21:21:18.793Z,29.65
2022-11-13T21:23:47.819Z,30.02
2022-11-13T21:26:17.275Z,27.40
2022-11-13T21:28:45.434Z,25.38
2022-11-13T21:31:15.974Z,26.00
2022-11-13T21:33:45.839Z,26.60
2022-11-13T21:36:15.477Z,27.45
2022-11-13T21:38:43.698Z,26.02
2022-11-13T21:41:25.760Z,29.10
2022-11-13T21:43:58.626Z,23.30
2022-11-13T21:46:30.218Z,23.90
2022-11-13T21:48:59.698Z,23.88
2022-11-13T21:51:27.602Z,23.02
2022-11-13T21:53:55.746Z,26.83
2022-11-13T21:56:24.434Z,24.45
2022-11-13T21:58:52.460Z,24.15
2022-11-13T22:01:23.595Z,22.38
2022-11-13T22:03:51.575Z,27.13
2022-11-13T22:06:21.478Z,23.13
2022-11-13T22:08:56.090Z,22.30
2022-11-13T22:11:24.708Z,23.52
2022-11-13T22:13:53.092Z,26.60
2022-11-13T22:16:22.801Z,22.20
2022-11-13T22:18:53.638Z,23.50
2022-11-13T22:21:21.787Z,19.58
2022-11-13T22:23:49.916Z,24.40
2022-11-13T22:26:18.980Z,22.05
2022-11-13T22:28:47.964Z,22.02
2022-11-13T22:31:17.559Z,21.00
2022-11-13T22:33:49.699Z,22.73
2022-11-13T22:36:22.426Z,20.35
2022-11-13T22:38:50.593Z,22.00
2022-11-13T22:41:22.961Z,17.83
2022-11-13T22:43:53.072Z,19.63
2022-11-13T22:46:22.560Z,20.33
2022-11-13T22:48:53.034Z,17.80
2022-11-13T22:51:22.512Z,16.92
2022-11-13T22:53:52.006Z,21.30
2022-11-13T22:56:20.775Z,18.30
2022-11-13T22:58:48.816Z,19.10
2022-11-13T23:01:18.583Z,18.58
2022-11-13T23:03:47.770Z,18.48
2022-11-13T23:06:18.632Z,18.50
2022-11-13T23:08:46.690Z,20.45
2022-11-13T23:11:16.932Z,18.33
2022-11-13T23:13:46.316Z,17.27
2022-11-13T23:16:14.809Z,17.55
2022-11-13T23:18:42.893Z,23.15
2022-11-13T23:21:11.635Z,19.55
2022-11-13T23:23:41.396Z,19.92
2022-11-13T23:26:10.774Z,20.60
2022-11-13T23:28:39.231Z,21.17
2022-11-13T23:31:07.975Z,18.70
2022-11-13T23:33:36.193Z,23.02
2022-11-13T23:36:04.029Z,19.98
2022-11-13T23:38:32.215Z,20.75
2022-11-13T23:41:02.303Z,18.85
2022-11-13T23:44:01.639Z,18.58
2022-11-13T23:46:18.601Z,19.50
2022-11-13T23:48:46.362Z,23.73
2022-11-13T23:51:14.034Z,21.77
2022-11-13T23:53:41.733Z,21.60
2022-11-13T23:56:11.789Z,21.55
2022-11-13T23:58:39.512Z,15.13
